Time;durP1;ratioP1;P1;durP2;ratioP2;P2;SDS_P1;SDS_P2;PMS_P1;PMS_P2;Temp;Humidity;BMP_temperature;BMP_pressure;BME280_temperature;BME280_humidity;BME280_pressure;Samples;Min_cycle;Max_cycle;Signal;HPM_P1;HPM_P2
2021/03/12 00:01:22;;;;;;;0.43;0.43;;;5.90;99.90;;;;;;5073641;28;20465;-71
2021/03/12 00:03:47;;;;;;;1.23;0.40;;;5.90;99.90;;;;;;5075725;28;20169;-70
2021/03/12 00:06:13;;;;;;;0.30;0.30;;;5.90;99.90;;;;;;5075728;28;20403;-71
2021/03/12 00:08:45;;;;;;;0.40;0.40;;;5.80;99.90;;;;;;5075613;28;20189;-69
2021/03/12 00:11:11;;;;;;;1.02;0.50;;;5.90;99.90;;;;;;5075661;28;20161;-71
2021/03/12 00:13:38;;;;;;;0.50;0.50;;;5.90;99.90;;;;;;5075482;28;20257;-70
2021/03/12 00:16:05;;;;;;;0.40;0.40;;;5.60;99.90;;;;;;5075435;28;20543;-69
2021/03/12 00:18:38;;;;;;;0.50;0.50;;;5.50;99.90;;;;;;5075689;28;20189;-71
2021/03/12 00:21:07;;;;;;;0.68;0.60;;;5.60;99.90;;;;;;5075479;28;20169;-70
2021/03/12 00:23:33;;;;;;;0.70;0.70;;;5.70;99.90;;;;;;5074007;28;20582;-70
2021/03/12 00:25:59;;;;;;;1.13;1.02;;;5.60;99.90;;;;;;5075591;28;20244;-69
2021/03/12 00:28:25;;;;;;;1.40;1.17;;;5.40;99.90;;;;;;5075648;28;20193;-70
2021/03/12 00:30:51;;;;;;;2.00;1.00;;;5.50;99.90;;;;;;5075331;28;20226;-70
2021/03/12 00:33:18;;;;;;;1.10;1.00;;;5.50;99.90;;;;;;5075027;28;20395;-69
2021/03/12 00:35:44;;;;;;;1.17;1.05;;;5.50;99.90;;;;;;5075267;28;20174;-70
2021/03/12 00:38:12;;;;;;;6.28;1.23;;;5.60;99.90;;;;;;5075116;28;20271;-70
2021/03/12 00:40:40;;;;;;;1.20;1.00;;;5.60;99.90;;;;;;5074952;28;20170;-71
2021/03/12 00:43:06;;;;;;;1.52;1.05;;;5.70;99.90;;;;;;5074880;28;20189;-70
2021/03/12 00:45:34;;;;;;;2.60;1.10;;;5.70;99.90;;;;;;5075163;28;20554;-70
2021/03/12 00:48:00;;;;;;;0.90;0.90;;;5.80;99.90;;;;;;5074985;28;20196;-70
2021/03/12 00:50:29;;;;;;;2.70;1.58;;;5.80;99.90;;;;;;5074784;28;20173;-69
2021/03/12 00:52:55;;;;;;;4.10;1.23;;;5.80;99.90;;;;;;5074766;28;20614;-70
2021/03/12 00:55:21;;;;;;;1.83;0.80;;;5.80;99.90;;;;;;5074765;28;20169;-70
2021/03/12 00:57:47;;;;;;;1.25;0.98;;;5.70;99.90;;;;;;5074612;28;20580;-70
2021/03/12 01:00:15;;;;;;;1.53;1.43;;;5.70;99.90;;;;;;5074744;28;20180;-70
2021/03/12 01:02:41;;;;;;;5.63;1.42;;;5.60;99.90;;;;;;5074237;28;20196;-70
2021/03/12 01:05:07;;;;;;;1.93;1.40;;;5.60;99.90;;;;;;5074593;28;20651;-70
2021/03/12 01:07:33;;;;;;;1.40;1.30;;;5.80;99.90;;;;;;5074373;28;20174;-69
2021/03/12 01:09:59;;;;;;;1.70;0.97;;;5.80;99.90;;;;;;5074467;28;20261;-70
2021/03/12 01:12:24;;;;;;;5.47;1.23;;;5.80;99.90;;;;;;5074241;28;20231;-70
2021/03/12 01:14:50;;;;;;;1.37;1.27;;;5.70;99.90;;;;;;5074399;28;20227;-71
2021/03/12 01:17:16;;;;;;;1.13;0.90;;;5.70;99.90;;;;;;5074549;28;20207;-70
2021/03/12 01:19:41;;;;;;;1.10;1.00;;;5.80;99.90;;;;;;5074283;28;20189;-71
2021/03/12 01:22:07;;;;;;;6.20;1.07;;;5.60;99.90;;;;;;5074255;28;20177;-70
2021/03/12 01:24:33;;;;;;;1.47;0.97;;;5.60;99.90;;;;;;5074097;28;20170;-70
2021/03/12 01:26:59;;;;;;;4.40;0.93;;;5.70;99.90;;;;;;5074010;28;20412;-70
2021/03/12 01:29:26;;;;;;;2.45;1.13;;;5.70;99.90;;;;;;5074184;28;20194;-70
2021/03/12 01:31:52;;;;;;;1.20;1.10;;;5.70;99.90;;;;;;5074145;28;20178;-70
2021/03/12 01:34:18;;;;;;;1.52;1.10;;;5.90;99.90;;;;;;5073963;28;20206;-70
2021/03/12 01:36:43;;;;;;;4.63;0.80;;;5.80;99.90;;;;;;5073823;28;20228;-69
2021/03/12 01:39:09;;;;;;;1.60;1.00;;;5.40;99.90;;;;;;5073777;28;20435;-70
2021/03/12 01:41:35;;;;;;;1.53;1.13;;;5.40;99.90;;;;;;5073801;28;20173;-70
2021/03/12 01:44:01;;;;;;;0.83;0.70;;;5.50;99.90;;;;;;5073774;28;20161;-70
2021/03/12 01:46:27;;;;;;;3.00;1.05;;;5.40;99.90;;;;;;5074020;28;20588;-70
2021/03/12 01:48:52;;;;;;;1.47;0.77;;;5.40;99.90;;;;;;5073736;28;20267;-70
2021/03/12 01:51:18;;;;;;;9.93;2.30;;;5.60;99.90;;;;;;5073701;28;20531;-70
2021/03/12 01:53:44;;;;;;;1.53;0.97;;;5.70;99.90;;;;;;5073527;28;20177;-70
2021/03/12 01:56:10;;;;;;;1.50;1.10;;;5.80;99.90;;;;;;5073582;28;20231;-70
2021/03/12 01:58:36;;;;;;;3.67;0.68;;;6.10;99.90;;;;;;5073617;28;20424;-69
2021/03/12 02:01:03;;;;;;;5.30;1.20;;;6.20;99.90;;;;;;5073829;28;20219;-70
2021/03/12 02:03:31;;;;;;;1.73;1.08;;;6.20;99.90;;;;;;5073446;28;20252;-71
2021/03/12 02:05:58;;;;;;;1.98;1.10;;;6.20;99.90;;;;;;5073648;28;20189;-70
2021/03/12 02:08:25;;;;;;;5.95;1.10;;;6.20;99.90;;;;;;5073669;28;20271;-69
2021/03/12 02:10:51;;;;;;;0.75;0.60;;;6.10;99.90;;;;;;5073700;28;20178;-70
2021/03/12 02:13:41;;;;;;;3.05;1.00;;;6.10;99.90;;;;;;5073377;28;20169;-70
2021/03/12 02:16:29;;;;;;;2.13;1.35;;;6.00;99.90;;;;;;5073215;28;20193;-70
2021/03/12 02:19:05;;;;;;;1.90;1.13;;;5.90;99.90;;;;;;5073305;28;20193;-70
2021/03/12 02:22:00;;;;;;;3.20;1.40;;;5.80;99.90;;;;;;5073365;28;20669;-69
2021/03/12 02:24:46;;;;;;;2.25;0.80;;;5.90;99.90;;;;;;5072064;28;20254;-71
2021/03/12 02:27:14;;;;;;;3.22;0.88;;;5.80;99.90;;;;;;5073385;28;20172;-69
2021/03/12 02:29:43;;;;;;;3.88;1.25;;;5.70;99.90;;;;;;5073261;28;20192;-70
2021/03/12 02:32:10;;;;;;;4.05;1.20;;;5.80;99.90;;;;;;5073400;28;20172;-70
2021/03/12 02:34:39;;;;;;;1.05;0.70;;;6.00;99.90;;;;;;5073361;28;20265;-70
2021/03/12 02:37:07;;;;;;;3.90;0.65;;;6.00;99.90;;;;;;5073316;28;20529;-70
2021/03/12 02:39:35;;;;;;;1.42;1.05;;;6.20;99.90;;;;;;5073255;28;20257;-69
2021/03/12 02:42:03;;;;;;;2.75;1.10;;;5.80;99.60;;;;;;5073211;28;20172;-70
2021/03/12 02:44:32;;;;;;;1.00;0.80;;;5.80;99.90;;;;;;5072932;28;20683;-70
2021/03/12 02:47:05;;;;;;;2.97;0.95;;;5.80;99.90;;;;;;5073108;28;20619;-69
2021/03/12 02:49:33;;;;;;;2.85;0.95;;;5.90;99.80;;;;;;5073055;28;20198;-69
2021/03/12 02:51:59;;;;;;;1.13;0.70;;;6.00;99.80;;;;;;5073213;28;20295;-70
2021/03/12 02:54:24;;;;;;;1.58;1.10;;;5.90;99.70;;;;;;5072853;28;20180;-69
2021/03/12 02:56:51;;;;;;;1.97;0.93;;;6.00;99.60;;;;;;5072953;28;20600;-69
2021/03/12 02:59:18;;;;;;;1.88;1.33;;;5.90;99.90;;;;;;5072962;28;20182;-70
2021/03/12 03:01:51;;;;;;;1.98;1.15;;;5.90;99.50;;;;;;5073194;28;20188;-70
2021/03/12 03:04:17;;;;;;;1.88;0.80;;;6.00;99.30;;;;;;5072818;28;20540;-69
2021/03/12 03:06:44;;;;;;;3.42;1.15;;;6.10;99.60;;;;;;5072892;28;20192;-70
2021/03/12 03:09:11;;;;;;;1.35;0.90;;;5.90;99.80;;;;;;5073004;28;20273;-70
2021/03/12 03:11:37;;;;;;;1.15;0.55;;;5.60;99.90;;;;;;5072778;28;20260;-70
2021/03/12 03:14:04;;;;;;;3.72;1.13;;;5.50;99.90;;;;;;5072866;28;20170;-70
2021/03/12 03:16:35;;;;;;;5.47;2.30;;;5.50;99.90;;;;;;5072636;28;20632;-71
2021/03/12 03:19:02;;;;;;;2.05;0.98;;;5.30;99.90;;;;;;5072636;28;20679;-70
2021/03/12 03:21:28;;;;;;;0.60;0.60;;;5.30;99.90;;;;;;5071522;28;20185;-70
2021/03/12 03:23:54;;;;;;;1.00;1.00;;;5.10;99.90;;;;;;5072537;28;20157;-70
2021/03/12 03:26:20;;;;;;;5.57;1.15;;;5.00;99.90;;;;;;5072818;28;20177;-70
2021/03/12 03:28:46;;;;;;;1.67;1.10;;;4.90;99.90;;;;;;5072920;28;20193;-70
2021/03/12 03:31:11;;;;;;;1.27;1.17;;;5.00;99.90;;;;;;5072582;28;20534;-71
2021/03/12 03:33:37;;;;;;;3.60;1.30;;;5.00;99.90;;;;;;5072492;28;20249;-70
2021/03/12 03:36:04;;;;;;;3.10;1.40;;;5.10;99.90;;;;;;5073670;28;20633;-70
2021/03/12 03:38:31;;;;;;;2.58;0.82;;;5.00;99.90;;;;;;5075973;28;20612;-70
2021/03/12 03:40:57;;;;;;;1.73;1.20;;;5.10;99.90;;;;;;5076353;28;20165;-69
2021/03/12 03:43:31;;;;;;;1.92;0.95;;;5.10;99.90;;;;;;5076034;28;20580;-69
2021/03/12 03:46:02;;;;;;;1.40;1.02;;;5.10;99.90;;;;;;5076057;28;20269;-70
2021/03/12 03:48:28;;;;;;;2.45;1.55;;;5.10;99.70;;;;;;5076158;28;20217;-69
2021/03/12 03:50:55;;;;;;;2.45;0.95;;;4.90;99.90;;;;;;5076081;28;20169;-70
2021/03/12 03:53:21;;;;;;;2.15;0.68;;;4.90;99.90;;;;;;5075812;28;20172;-70
2021/03/12 03:55:48;;;;;;;1.00;0.95;;;4.80;99.90;;;;;;5076125;28;20174;-70
2021/03/12 03:58:15;;;;;;;1.10;1.05;;;4.80;99.60;;;;;;5075725;28;20201;-70
2021/03/12 04:00:41;;;;;;;3.25;1.08;;;4.90;99.90;;;;;;5075815;28;20257;-71
2021/03/12 04:03:07;;;;;;;1.80;1.70;;;4.90;99.90;;;;;;5075647;28;20165;-70
2021/03/12 04:05:33;;;;;;;9.80;1.37;;;4.90;99.90;;;;;;5075734;28;20177;-69
2021/03/12 04:08:00;;;;;;;1.47;1.37;;;4.80;99.90;;;;;;5075767;28;20189;-70
2021/03/12 04:10:27;;;;;;;3.58;1.45;;;4.80;99.90;;;;;;5075814;28;20404;-70
2021/03/12 04:12:53;;;;;;;2.55;1.40;;;4.70;99.90;;;;;;5075643;28;20184;-69
2021/03/12 04:15:20;;;;;;;3.13;0.98;;;4.90;99.90;;;;;;5075450;28;20186;-70
2021/03/12 04:17:46;;;;;;;2.13;1.52;;;5.00;99.80;;;;;;5075360;28;20201;-70
2021/03/12 04:20:13;;;;;;;3.45;0.80;;;5.00;99.90;;;;;;5075536;28;20169;-71
2021/03/12 04:22:39;;;;;;;0.90;0.90;;;5.10;99.90;;;;;;5075233;28;20208;-69
2021/03/12 04:25:06;;;;;;;0.85;0.73;;;5.10;99.70;;;;;;5075558;28;20185;-70
2021/03/12 04:27:33;;;;;;;0.50;0.50;;;5.10;99.50;;;;;;5075977;28;20579;-69
2021/03/12 04:29:59;;;;;;;0.63;0.63;;;5.00;99.60;;;;;;5075309;28;20227;-70
2021/03/12 04:32:25;;;;;;;0.60;0.60;;;4.90;99.70;;;;;;5075303;28;20201;-69
2021/03/12 04:34:51;;;;;;;0.95;0.82;;;4.80;99.90;;;;;;5075308;28;20538;-69
2021/03/12 04:37:17;;;;;;;2.03;1.10;;;4.80;99.90;;;;;;5075221;28;20201;-69
2021/03/12 04:39:43;;;;;;;6.00;1.13;;;4.90;99.90;;;;;;5075133;28;20187;-70
2021/03/12 04:42:12;;;;;;;4.73;1.67;;;4.90;99.20;;;;;;5075116;28;20166;-70
2021/03/12 04:44:38;;;;;;;2.08;1.00;;;4.70;99.00;;;;;;5075215;28;20420;-70
2021/03/12 04:47:05;;;;;;;2.45;0.77;;;4.60;99.10;;;;;;5074708;28;20173;-70
2021/03/12 04:49:31;;;;;;;2.28;1.08;;;4.60;99.20;;;;;;5074932;28;20562;-71
2021/03/12 04:51:58;;;;;;;2.08;0.75;;;4.50;99.10;;;;;;5074992;28;20185;-69
2021/03/12 04:54:24;;;;;;;1.95;1.10;;;4.40;99.50;;;;;;5075244;28;20201;-70
2021/03/12 04:56:50;;;;;;;3.33;1.05;;;4.30;99.70;;;;;;5074833;28;20205;-70
2021/03/12 04:59:17;;;;;;;2.05;1.02;;;4.30;99.80;;;;;;5074787;28;20585;-71
2021/03/12 05:01:43;;;;;;;1.98;1.05;;;4.20;99.90;;;;;;5074738;28;20286;-70
2021/03/12 05:04:09;;;;;;;1.48;0.98;;;4.10;99.90;;;;;;5074495;28;20173;-69
2021/03/12 05:06:41;;;;;;;2.88;1.00;;;4.30;99.90;;;;;;5074736;28;20181;-70
2021/03/12 05:09:12;;;;;;;1.90;1.17;;;4.40;99.90;;;;;;5074699;28;20247;-70
2021/03/12 05:11:43;;;;;;;2.00;0.90;;;4.60;99.60;;;;;;5074732;28;20158;-69
2021/03/12 05:14:13;;;;;;;1.75;1.30;;;4.60;99.60;;;;;;5074294;28;20162;-70
2021/03/12 05:16:39;;;;;;;1.58;0.75;;;4.60;99.50;;;;;;5074366;28;20205;-69
2021/03/12 05:19:04;;;;;;;1.27;1.10;;;4.60;99.20;;;;;;5074378;28;20200;-70
2021/03/12 05:21:30;;;;;;;4.57;1.57;;;4.70;99.10;;;;;;5074361;28;20176;-69
2021/03/12 05:23:58;;;;;;;0.98;0.63;;;4.70;99.20;;;;;;5073968;28;20818;-70
2021/03/12 05:26:24;;;;;;;1.10;0.65;;;4.80;99.00;;;;;;5074127;28;20173;-70
2021/03/12 05:28:49;;;;;;;7.50;1.53;;;4.70;98.50;;;;;;5074117;28;20555;-72
2021/03/12 05:31:15;;;;;;;10.03;1.17;;;4.80;98.30;;;;;;5074226;28;20176;-70
2021/03/12 05:33:41;;;;;;;1.23;1.10;;;4.60;98.40;;;;;;5073835;28;20623;-71
2021/03/12 05:36:06;;;;;;;2.70;1.00;;;4.60;98.50;;;;;;5074234;28;20309;-70
2021/03/12 05:38:32;;;;;;;8.07;1.07;;;4.30;99.10;;;;;;5074058;28;20286;-70
2021/03/12 05:40:58;;;;;;;1.97;0.93;;;4.10;98.90;;;;;;5074121;28;20679;-70
2021/03/12 05:43:24;;;;;;;1.77;1.13;;;4.20;98.80;;;;;;5073815;28;20519;-69
2021/03/12 05:45:51;;;;;;;1.93;0.80;;;4.10;98.80;;;;;;5073775;28;20404;-70
2021/03/12 05:48:18;;;;;;;1.85;1.00;;;4.30;98.80;;;;;;5072357;28;20961;-69
2021/03/12 05:50:44;;;;;;;1.60;0.90;;;4.20;98.90;;;;;;5073765;28;20656;-69
2021/03/12 05:53:09;;;;;;;1.80;1.70;;;4.20;98.90;;;;;;5073698;28;20170;-70
2021/03/12 05:55:35;;;;;;;2.07;1.03;;;4.10;99.20;;;;;;5072463;28;20608;-70
2021/03/12 05:58:01;;;;;;;3.43;0.93;;;4.10;99.30;;;;;;5073298;28;20576;-69
2021/03/12 06:00:27;;;;;;;6.03;1.20;;;4.00;99.00;;;;;;5073381;28;20177;-70
2021/03/12 06:02:53;;;;;;;3.35;1.70;;;3.90;99.30;;;;;;5073584;28;20761;-71
2021/03/12 06:05:19;;;;;;;3.30;1.53;;;4.10;99.40;;;;;;5073627;28;20177;-69
2021/03/12 06:07:47;;;;;;;1.10;1.00;;;4.30;99.10;;;;;;5073667;28;20178;-69
2021/03/12 06:10:13;;;;;;;1.88;0.93;;;4.30;99.00;;;;;;5073500;28;20207;-70
2021/03/12 06:12:39;;;;;;;0.93;0.93;;;4.30;99.00;;;;;;5073526;28;20599;-70
2021/03/12 06:15:06;;;;;;;6.13;2.33;;;4.40;98.80;;;;;;5073401;28;20227;-70
2021/03/12 06:17:37;;;;;;;3.45;1.00;;;4.40;99.10;;;;;;5073404;28;20447;-70
2021/03/12 06:20:06;;;;;;;1.70;0.70;;;4.20;99.90;;;;;;5073267;28;20197;-70
2021/03/12 06:22:33;;;;;;;1.15;0.98;;;4.30;99.90;;;;;;5073081;28;20169;-70
2021/03/12 06:25:13;;;;;;;3.22;1.23;;;4.20;99.90;;;;;;5073571;28;20172;-70
2021/03/12 06:27:40;;;;;;;0.95;0.85;;;4.20;99.90;;;;;;5073345;28;20169;-71
2021/03/12 06:30:06;;;;;;;1.27;0.77;;;4.20;99.90;;;;;;5073293;28;20177;-70
2021/03/12 06:32:38;;;;;;;0.80;0.80;;;4.20;99.90;;;;;;5073494;28;20173;-70
2021/03/12 06:35:05;;;;;;;0.60;0.60;;;4.20;99.90;;;;;;5073178;28;20180;-70
2021/03/12 06:37:31;;;;;;;1.23;0.50;;;4.00;99.90;;;;;;5073493;28;20208;-70
2021/03/12 06:39:58;;;;;;;0.60;0.50;;;3.90;99.90;;;;;;5073150;28;20216;-69
2021/03/12 06:42:25;;;;;;;0.50;0.50;;;4.10;99.90;;;;;;5073055;28;20400;-69
2021/03/12 06:44:51;;;;;;;0.95;0.60;;;4.40;99.90;;;;;;5073169;28;20215;-70
2021/03/12 06:47:21;;;;;;;0.80;0.80;;;4.50;99.90;;;;;;5073226;28;20201;-70
2021/03/12 06:49:54;;;;;;;2.08;1.15;;;4.60;99.90;;;;;;5073034;28;20197;-70
2021/03/12 06:52:33;;;;;;;5.88;1.05;;;4.60;99.80;;;;;;5072909;28;20174;-69
2021/03/12 06:54:59;;;;;;;1.05;1.05;;;4.80;99.60;;;;;;5073280;28;20169;-71
2021/03/12 06:57:25;;;;;;;2.50;0.60;;;4.90;99.10;;;;;;5073142;28;20211;-70
2021/03/12 06:59:58;;;;;;;0.83;0.83;;;5.10;99.00;;;;;;5072819;28;20443;-70
2021/03/12 07:02:35;;;;;;;2.38;1.10;;;5.30;98.50;;;;;;5073147;28;20519;-70
2021/03/12 07:05:01;;;;;;;1.30;0.90;;;5.40;98.00;;;;;;5071704;28;20227;-70
2021/03/12 07:07:35;;;;;;;0.82;0.70;;;5.30;97.90;;;;;;5072977;28;20277;-69
2021/03/12 07:10:01;;;;;;;1.00;0.90;;;5.50;97.90;;;;;;5074111;28;20662;-68
2021/03/12 07:12:48;;;;;;;2.63;1.33;;;5.50;98.10;;;;;;5076530;28;20258;-69
2021/03/12 07:15:14;;;;;;;3.08;1.40;;;5.50;97.80;;;;;;5076897;28;20670;-69
2021/03/12 07:17:40;;;;;;;1.35;1.23;;;5.60;97.20;;;;;;5076579;28;20262;-69
2021/03/12 07:20:08;;;;;;;2.58;0.70;;;5.50;97.20;;;;;;5076691;28;20177;-69
2021/03/12 07:22:36;;;;;;;1.55;0.90;;;5.40;97.50;;;;;;5076476;28;20536;-69
2021/03/12 07:25:06;;;;;;;6.22;0.98;;;5.40;97.40;;;;;;5076743;28;20223;-69
2021/03/12 07:27:33;;;;;;;2.88;1.63;;;5.50;97.60;;;;;;5076582;28;20566;-68
2021/03/12 07:30:05;;;;;;;1.15;1.05;;;5.60;97.30;;;;;;5076489;28;20619;-69
2021/03/12 07:32:33;;;;;;;5.75;1.05;;;5.70;97.20;;;;;;5076272;28;20241;-68
2021/03/12 07:35:00;;;;;;;2.63;0.90;;;5.60;97.60;;;;;;5076559;28;20258;-68
2021/03/12 07:37:32;;;;;;;4.38;1.30;;;5.80;97.20;;;;;;5076155;28;20205;-68
2021/03/12 07:39:59;;;;;;;0.95;0.93;;;5.90;97.00;;;;;;5076125;28;20205;-68
2021/03/12 07:42:26;;;;;;;1.20;0.88;;;6.10;96.70;;;;;;5076124;28;20699;-68
2021/03/12 07:44:52;;;;;;;1.35;0.75;;;6.10;96.20;;;;;;5076236;28;20174;-69
2021/03/12 07:47:27;;;;;;;1.75;1.10;;;6.10;96.10;;;;;;5075824;28;20173;-69
2021/03/12 07:49:53;;;;;;;5.03;1.38;;;6.10;96.00;;;;;;5075220;28;20184;-69
2021/03/12 07:52:50;;;;;;;2.95;1.70;;;6.20;96.20;;;;;;5074162;28;20615;-67
2021/03/12 07:55:34;;;;;;;0.73;0.73;;;6.10;95.70;;;;;;5076064;28;20224;-69
2021/03/12 07:58:01;;;;;;;5.70;1.35;;;6.30;95.90;;;;;;5075312;28;20198;-68
2021/03/12 08:00:26;;;;;;;0.95;0.65;;;6.80;95.10;;;;;;5076050;28;20622;-67
2021/03/12 08:02:56;;;;;;;2.53;0.87;;;8.20;99.70;;;;;;5075616;28;20250;-67
2021/03/12 08:05:33;;;;;;;1.92;0.70;;;9.60;92.10;;;;;;5075906;28;20161;-68
2021/03/12 08:07:59;;;;;;;1.67;0.93;;;11.40;83.90;;;;;;5075833;28;20212;-67
2021/03/12 08:10:25;;;;;;;5.03;1.47;;;12.40;77.70;;;;;;5075652;28;20400;-68
2021/03/12 08:12:51;;;;;;;1.63;1.07;;;13.30;72.70;;;;;;5075385;28;20455;-69
2021/03/12 08:15:20;;;;;;;3.90;1.20;;;14.50;69.00;;;;;;5075470;28;20796;-68
2021/03/12 08:18:09;;;;;;;1.20;0.87;;;14.70;64.60;;;;;;5075624;28;20341;-67
2021/03/12 08:20:43;;;;;;;4.00;1.00;;;14.60;65.80;;;;;;5074947;28;20404;-67
2021/03/12 08:23:13;;;;;;;2.00;1.07;;;13.90;63.90;;;;;;5074652;28;20411;-68
2021/03/12 08:25:39;;;;;;;3.20;1.63;;;14.40;62.20;;;;;;5075666;28;20406;-68
2021/03/12 08:28:08;;;;;;;1.57;1.17;;;15.40;59.80;;;;;;5075525;28;20427;-68
2021/03/12 08:30:34;;;;;;;4.50;1.20;;;16.30;57.50;;;;;;5075456;28;20407;-69
2021/03/12 08:33:07;;;;;;;1.33;0.90;;;16.80;53.40;;;;;;5075172;28;20407;-68
2021/03/12 08:35:33;;;;;;;1.33;1.20;;;16.10;53.60;;;;;;5075471;28;20177;-69
2021/03/12 08:38:11;;;;;;;2.10;1.37;;;16.50;54.80;;;;;;5075043;28;20453;-68
2021/03/12 08:40:42;;;;;;;2.57;1.50;;;16.20;52.90;;;;;;5075132;28;20511;-70
2021/03/12 08:43:13;;;;;;;1.40;1.00;;;15.90;53.40;;;;;;5074952;28;20407;-69
2021/03/12 08:45:50;;;;;;;2.93;1.10;;;15.50;54.90;;;;;;5075245;28;20732;-68
2021/03/12 08:48:24;;;;;;;1.03;1.03;;;14.90;54.60;;;;;;5075088;28;20434;-69
2021/03/12 08:51:11;;;;;;;2.70;1.03;;;15.10;54.00;;;;;;5075112;28;20404;-70
2021/03/12 08:53:51;;;;;;;1.30;0.93;;;15.00;53.50;;;;;;5074863;28;20481;-71
2021/03/12 08:56:22;;;;;;;1.80;1.30;;;15.40;53.20;;;;;;5075552;28;20400;-70
2021/03/12 08:58:48;;;;;;;3.10;1.03;;;16.30;54.50;;;;;;5074239;28;20431;-68
2021/03/12 09:01:19;;;;;;;1.60;0.90;;;17.60;51.30;;;;;;5073903;28;20395;-68
2021/03/12 09:03:49;;;;;;;1.70;1.20;;;18.70;48.10;;;;;;5074537;28;20461;-68
2021/03/12 09:06:17;;;;;;;5.03;1.13;;;18.90;46.50;;;;;;5075140;28;20877;-68
2021/03/12 09:08:44;;;;;;;6.33;1.17;;;19.60;47.00;;;;;;5074892;28;20452;-68
2021/03/12 09:11:14;;;;;;;4.70;1.50;;;20.70;43.90;;;;;;5074573;28;20468;-71
2021/03/12 09:13:42;;;;;;;2.90;1.03;;;21.40;41.70;;;;;;5074524;28;20395;-68
2021/03/12 09:16:09;;;;;;;3.73;1.43;;;22.10;40.80;;;;;;5072839;28;20516;-67
2021/03/12 09:18:38;;;;;;;2.20;1.17;;;21.80;38.90;;;;;;5074381;28;20454;-68
2021/03/12 09:21:06;;;;;;;1.53;0.80;;;22.00;39.70;;;;;;5074941;28;20502;-68
2021/03/12 09:23:40;;;;;;;2.93;0.87;;;22.00;39.30;;;;;;5074317;28;20403;-67
2021/03/12 09:26:08;;;;;;;1.80;0.80;;;21.50;40.00;;;;;;5074485;28;20494;-68
2021/03/12 09:28:34;;;;;;;2.60;1.03;;;21.40;39.70;;;;;;5072418;28;20473;-68
2021/03/12 09:31:02;;;;;;;2.30;0.80;;;20.20;40.20;;;;;;5073789;28;20404;-68
2021/03/12 09:33:32;;;;;;;2.10;1.17;;;20.10;40.00;;;;;;5072752;28;20440;-68
2021/03/12 09:35:59;;;;;;;2.07;1.20;;;20.30;38.90;;;;;;5074577;28;20911;-68
2021/03/12 09:38:38;;;;;;;0.93;0.60;;;19.40;40.00;;;;;;5074011;28;20531;-68
2021/03/12 09:41:24;;;;;;;4.33;1.50;;;17.60;40.20;;;;;;5074410;28;20411;-68
2021/03/12 09:44:20;;;;;;;3.07;1.07;;;17.20;42.20;;;;;;5073982;28;20428;-68
2021/03/12 09:46:48;;;;;;;3.93;1.20;;;16.80;43.60;;;;;;5073542;28;20419;-69
2021/03/12 09:49:20;;;;;;;1.93;0.90;;;16.00;43.20;;;;;;5073829;28;20890;-68
2021/03/12 09:51:47;;;;;;;2.93;1.07;;;14.50;45.60;;;;;;5074159;28;20404;-68
2021/03/12 09:54:15;;;;;;;4.23;0.97;;;13.50;47.10;;;;;;5074089;28;20408;-68
2021/03/12 09:56:51;;;;;;;7.03;1.10;;;12.70;47.60;;;;;;5074216;28;20411;-68
2021/03/12 09:59:24;;;;;;;2.40;0.70;;;12.10;48.80;;;;;;5073718;28;20419;-68
2021/03/12 10:01:50;;;;;;;2.30;1.20;;;11.90;48.90;;;;;;5073918;28;20450;-68
2021/03/12 10:04:36;;;;;;;2.27;1.30;;;12.60;48.00;;;;;;5073880;28;20406;-68
2021/03/12 10:07:13;;;;;;;1.40;1.10;;;14.10;46.80;;;;;;5074299;28;20450;-68
2021/03/12 10:09:44;;;;;;;2.50;1.03;;;14.20;46.70;;;;;;5073744;28;20893;-68
2021/03/12 10:12:20;;;;;;;1.20;0.90;;;13.90;48.10;;;;;;5073574;28;20494;-68
2021/03/12 10:14:47;;;;;;;3.83;0.80;;;13.70;47.90;;;;;;5073685;28;20408;-68
2021/03/12 10:17:26;;;;;;;3.80;0.90;;;13.00;47.50;;;;;;5073970;28;20519;-69
2021/03/12 10:20:03;;;;;;;12.60;1.37;;;12.70;49.40;;;;;;5072831;28;20428;-68
2021/03/12 10:22:37;;;;;;;5.20;0.70;;;12.20;47.90;;;;;;5073318;28;20410;-68
2021/03/12 10:25:17;;;;;;;2.60;1.70;;;12.10;51.10;;;;;;5073670;28;20457;-68
2021/03/12 10:28:08;;;;;;;1.10;1.00;;;12.90;51.90;;;;;;5072319;28;20442;-68
2021/03/12 10:30:35;;;;;;;1.17;1.00;;;14.10;48.10;;;;;;5072662;28;20408;-68
2021/03/12 10:33:04;;;;;;;4.53;1.10;;;14.80;45.30;;;;;;5073109;28;20897;-68
2021/03/12 10:35:39;;;;;;;2.30;0.80;;;15.80;46.00;;;;;;5073003;28;20404;-69
2021/03/12 10:38:05;;;;;;;2.30;1.00;;;16.50;46.30;;;;;;5073550;28;20535;-68
2021/03/12 10:40:38;;;;;;;0.80;0.80;;;16.80;43.20;;;;;;5073355;28;20971;-70
2021/03/12 10:43:24;;;;;;;7.13;1.60;;;16.60;42.20;;;;;;5072971;28;20239;-68
2021/03/12 10:45:56;;;;;;;3.00;1.27;;;16.10;43.00;;;;;;5076120;28;20401;-70
2021/03/12 10:48:27;;;;;;;1.13;0.80;;;15.80;43.90;;;;;;5077775;28;20419;-69
2021/03/12 10:51:03;;;;;;;1.97;1.17;;;15.40;44.20;;;;;;5077493;28;20412;-69
2021/03/12 10:53:30;;;;;;;2.63;1.27;;;15.30;44.60;;;;;;5077195;28;20744;-70
2021/03/12 10:56:04;;;;;;;2.60;1.40;;;14.90;43.80;;;;;;5077436;28;20395;-70
2021/03/12 10:58:36;;;;;;;4.17;0.73;;;14.50;45.90;;;;;;5077088;28;20458;-69
2021/03/12 11:01:13;;;;;;;1.90;0.83;;;13.90;45.10;;;;;;5077664;28;20411;-69
2021/03/12 11:03:43;;;;;;;1.90;1.43;;;13.50;44.60;;;;;;5076701;28;20407;-71
2021/03/12 11:06:13;;;;;;;1.27;0.80;;;13.20;46.40;;;;;;5077382;28;20387;-69
2021/03/12 11:08:40;;;;;;;1.10;1.00;;;13.00;47.10;;;;;;5075949;28;20966;-69
2021/03/12 11:11:09;;;;;;;2.30;0.80;;;13.20;48.30;;;;;;5076864;28;20396;-70
2021/03/12 11:13:36;;;;;;;2.20;1.13;;;12.80;47.70;;;;;;5076467;28;20403;-70
2021/03/12 11:16:03;;;;;;;1.27;0.90;;;13.00;49.80;;;;;;5076653;28;21006;-68
2021/03/12 11:18:30;;;;;;;2.03;1.10;;;13.30;48.20;;;;;;5076504;28;20455;-69
2021/03/12 11:21:01;;;;;;;2.10;1.37;;;13.30;47.90;;;;;;5076700;28;20399;-70
2021/03/12 11:23:27;;;;;;;1.53;0.73;;;13.30;49.70;;;;;;5076425;28;20772;-70
2021/03/12 11:25:54;;;;;;;1.00;0.90;;;13.70;49.50;;;;;;5076764;28;20406;-70
2021/03/12 11:28:20;;;;;;;1.60;0.90;;;13.60;48.20;;;;;;5076363;28;20572;-70
2021/03/12 11:30:45;;;;;;;1.70;1.47;;;13.20;47.50;;;;;;5076368;28;20400;-70
2021/03/12 11:33:11;;;;;;;1.50;0.80;;;12.80;49.20;;;;;;5076302;28;20410;-69
2021/03/12 11:35:38;;;;;;;1.57;0.90;;;12.30;48.00;;;;;;5076480;28;20806;-69
2021/03/12 11:38:04;;;;;;;1.77;0.83;;;12.10;49.70;;;;;;5076284;28;20276;-70
2021/03/12 11:40:30;;;;;;;1.20;1.10;;;11.60;49.50;;;;;;5076297;28;20457;-69
2021/03/12 11:42:56;;;;;;;3.20;0.80;;;11.10;49.80;;;;;;5076032;28;20610;-69
2021/03/12 11:45:22;;;;;;;3.47;0.93;;;11.10;50.30;;;;;;5076366;28;20446;-68
2021/03/12 11:47:49;;;;;;;2.10;0.80;;;10.90;50.10;;;;;;5076130;28;20174;-69
2021/03/12 11:50:17;;;;;;;1.67;0.85;;;10.90;50.80;;;;;;5076208;28;20169;-69
2021/03/12 11:52:43;;;;;;;1.25;0.90;;;10.70;51.10;;;;;;5076103;28;20628;-69
2021/03/12 11:55:09;;;;;;;2.70;0.95;;;10.80;52.10;;;;;;5076035;28;20162;-70
2021/03/12 11:57:38;;;;;;;3.58;0.98;;;10.70;51.40;;;;;;5075041;28;20240;-68
2021/03/12 12:00:07;;;;;;;0.85;0.85;;;10.50;51.70;;;;;;5075543;28;20173;-69
2021/03/12 12:02:33;;;;;;;1.15;0.75;;;10.30;52.30;;;;;;5074729;28;20533;-69
2021/03/12 12:04:59;;;;;;;3.53;1.27;;;10.40;54.20;;;;;;5074952;28;20173;-69
2021/03/12 12:07:24;;;;;;;0.80;0.77;;;10.50;51.60;;;;;;5075966;28;20185;-70
2021/03/12 12:09:50;;;;;;;1.40;0.57;;;10.70;53.50;;;;;;5075748;28;20193;-68
2021/03/12 12:12:15;;;;;;;2.60;1.03;;;10.70;52.80;;;;;;5075463;28;20173;-70
2021/03/12 12:14:41;;;;;;;1.70;0.90;;;10.50;53.40;;;;;;5075765;28;20181;-69
2021/03/12 12:17:08;;;;;;;1.13;1.13;;;10.30;54.00;;;;;;5075725;28;20654;-69
2021/03/12 12:19:35;;;;;;;3.75;0.95;;;10.20;54.80;;;;;;5075566;28;20186;-70
2021/03/12 12:22:01;;;;;;;0.80;0.77;;;10.50;54.50;;;;;;5075815;28;20165;-69
2021/03/12 12:24:26;;;;;;;1.33;1.20;;;10.80;53.80;;;;;;5075518;28;20243;-70
2021/03/12 12:26:53;;;;;;;2.13;0.87;;;11.10;53.40;;;;;;5075507;28;20178;-69
2021/03/12 12:29:19;;;;;;;5.25;0.85;;;11.30;54.60;;;;;;5075369;28;20198;-69
2021/03/12 12:31:45;;;;;;;3.60;1.07;;;11.00;54.10;;;;;;5075559;28;20180;-69
2021/03/12 12:34:11;;;;;;;2.15;0.80;;;10.70;55.20;;;;;;5075030;28;20439;-69
2021/03/12 12:36:37;;;;;;;1.33;1.07;;;10.60;54.80;;;;;;5075078;28;20220;-69
2021/03/12 12:39:07;;;;;;;5.15;1.15;;;10.40;55.70;;;;;;5075434;28;20284;-69
2021/03/12 12:41:34;;;;;;;4.90;1.90;;;10.20;57.20;;;;;;5075167;28;20208;-68
2021/03/12 12:43:59;;;;;;;2.08;1.20;;;10.10;57.10;;;;;;5075051;28;20169;-69
2021/03/12 12:46:25;;;;;;;2.63;0.90;;;10.10;57.70;;;;;;5075167;28;20170;-69
2021/03/12 12:48:50;;;;;;;3.70;0.90;;;9.90;57.50;;;;;;5075094;28;20299;-69
2021/03/12 12:51:16;;;;;;;4.10;0.83;;;9.80;58.30;;;;;;5075020;28;20701;-70
2021/03/12 12:53:42;;;;;;;6.78;1.05;;;9.70;58.40;;;;;;5074809;28;20181;-69
2021/03/12 12:56:08;;;;;;;1.53;0.70;;;9.80;59.10;;;;;;5074875;28;20647;-68
2021/03/12 12:58:34;;;;;;;14.48;1.63;;;9.90;59.50;;;;;;5074706;28;20213;-68
2021/03/12 13:01:00;;;;;;;3.42;0.82;;;9.60;60.90;;;;;;5074884;28;20180;-70